createdAt,value
2023-02-13T00:00:31.480Z,67.27
2023-02-13T00:02:58.574Z,68.15
2023-02-13T00:05:25.099Z,67.60
2023-02-13T00:07:51.616Z,68.49
2023-02-13T00:10:18.373Z,67.84
2023-02-13T00:12:44.918Z,68.40
2023-02-13T00:15:11.441Z,68.81
2023-02-13T00:17:38.098Z,68.28
2023-02-13T00:20:05.367Z,68.03
2023-02-13T00:22:36.084Z,68.00
2023-02-13T00:25:03.331Z,68.62
2023-02-13T00:27:29.871Z,67.87
2023-02-13T00:29:56.452Z,68.11
2023-02-13T00:32:23.445Z,68.00
2023-02-13T00:34:50.159Z,67.82
2023-02-13T00:37:16.729Z,67.53
2023-02-13T00:39:45.360Z,68.15
2023-02-13T00:42:11.957Z,68.62
2023-02-13T00:44:38.501Z,67.89
2023-02-13T00:47:05.065Z,68.69
2023-02-13T00:49:31.604Z,68.06
2023-02-13T00:52:00.652Z,68.43
2023-02-13T00:54:27.182Z,67.60
2023-02-13T00:56:53.710Z,68.22
2023-02-13T00:59:20.240Z,67.24
2023-02-13T01:01:46.795Z,67.69
2023-02-13T01:04:14.108Z,67.75
2023-02-13T01:06:40.655Z,66.71
2023-02-13T01:09:07.551Z,67.67
2023-02-13T01:11:35.801Z,66.96
2023-02-13T01:14:02.439Z,66.63
2023-02-13T01:16:29.072Z,67.48
2023-02-13T01:18:55.739Z,66.90
2023-02-13T01:21:24.602Z,67.85
2023-02-13T01:23:53.157Z,67.81
2023-02-13T01:26:21.266Z,67.63
2023-02-13T01:28:52.784Z,67.49
2023-02-13T01:31:19.433Z,67.42
2023-02-13T01:33:46.091Z,67.75
2023-02-13T01:36:14.208Z,66.96
2023-02-13T01:38:41.214Z,66.45
2023-02-13T01:41:08.278Z,67.22
2023-02-13T01:43:51.908Z,67.03
2023-02-13T01:46:23.284Z,67.04
2023-02-13T01:48:51.190Z,67.01
2023-02-13T01:51:20.339Z,66.69
2023-02-13T01:53:50.031Z,67.30
2023-02-13T01:56:38.968Z,67.03
2023-02-13T01:59:08.840Z,67.46
2023-02-13T02:01:36.439Z,67.65
2023-02-13T02:04:08.970Z,67.42
2023-02-13T02:06:41.778Z,67.51
2023-02-13T02:09:12.526Z,66.89
2023-02-13T02:11:45.122Z,67.05
2023-02-13T02:14:12.086Z,67.44
2023-02-13T02:16:41.250Z,67.39
2023-02-13T02:19:13.397Z,66.53
2023-02-13T02:21:53.778Z,66.88
2023-02-13T02:24:31.009Z,66.60
2023-02-13T02:27:19.293Z,67.14
2023-02-13T02:30:11.688Z,66.63
2023-02-13T02:32:44.294Z,66.63
2023-02-13T02:35:18.890Z,67.14
2023-02-13T02:37:45.573Z,66.47
2023-02-13T02:40:35.933Z,66.75
2023-02-13T02:43:03.482Z,66.51
2023-02-13T02:45:30.187Z,66.35
2023-02-13T02:48:18.937Z,65.85
2023-02-13T02:50:53.652Z,66.02
2023-02-13T02:53:35.402Z,66.26
2023-02-13T02:56:07.344Z,65.95
2023-02-13T02:59:04.330Z,65.72
2023-02-13T03:01:52.272Z,66.58
2023-02-13T03:04:47.327Z,66.04
2023-02-13T03:07:16.188Z,66.17
2023-02-13T03:10:05.663Z,66.57
2023-02-13T03:12:57.282Z,65.79
2023-02-13T03:15:26.281Z,66.06
2023-02-13T03:18:12.148Z,66.20
2023-02-13T03:21:04.071Z,66.83
2023-02-13T03:23:36.052Z,66.79
2023-02-13T03:26:11.667Z,66.65
2023-02-13T03:29:10.743Z,66.23
2023-02-13T03:31:43.703Z,66.47
2023-02-13T03:34:13.387Z,66.10
2023-02-13T03:37:07.958Z,67.09
2023-02-13T03:39:40.311Z,67.00
2023-02-13T03:42:21.968Z,67.00
2023-02-13T03:45:15.043Z,67.40
2023-02-13T03:47:43.137Z,67.90
2023-02-13T03:50:10.736Z,67.10
2023-02-13T03:52:37.206Z,67.05
2023-02-13T03:55:35.753Z,67.21
2023-02-13T03:58:30.492Z,67.76
2023-02-13T04:00:59.721Z,67.48
2023-02-13T04:03:28.977Z,68.38
2023-02-13T04:06:03.558Z,67.57
2023-02-13T04:08:30.517Z,68.44
2023-02-13T04:11:12.255Z,67.88
2023-02-13T04:13:58.998Z,68.26
2023-02-13T04:16:45.822Z,67.79
2023-02-13T04:19:12.797Z,67.63
2023-02-13T04:21:40.405Z,67.47
2023-02-13T04:24:07.467Z,68.29
2023-02-13T04:26:36.520Z,67.41
2023-02-13T04:29:03.563Z,68.38
2023-02-13T04:31:30.295Z,67.49
2023-02-13T04:33:57.361Z,68.19
2023-02-13T04:36:23.965Z,67.57
2023-02-13T04:38:50.584Z,67.87
2023-02-13T04:41:17.442Z,68.26
2023-02-13T04:43:44.012Z,67.51
2023-02-13T04:46:10.688Z,67.17
2023-02-13T04:48:38.910Z,67.23
2023-02-13T04:51:05.639Z,67.21
2023-02-13T04:53:32.889Z,67.22
2023-02-13T04:55:59.515Z,67.95
2023-02-13T04:58:26.118Z,67.57
2023-02-13T05:00:52.797Z,67.71
2023-02-13T05:03:19.337Z,67.70
2023-02-13T05:05:45.852Z,67.87
2023-02-13T05:08:12.414Z,67.82
2023-02-13T05:10:38.932Z,66.88
2023-02-13T05:13:05.448Z,67.31
2023-02-13T05:15:32.436Z,67.49
2023-02-13T05:17:59.157Z,67.33
2023-02-13T05:20:25.767Z,67.28
2023-02-13T05:23:12.057Z,67.37
2023-02-13T05:25:40.424Z,67.89
2023-02-13T05:28:27.597Z,66.94
2023-02-13T05:30:54.617Z,67.34
2023-02-13T05:33:21.280Z,66.92
2023-02-13T05:35:47.836Z,67.24
2023-02-13T05:38:14.455Z,67.00
2023-02-13T05:40:41.007Z,67.47
2023-02-13T05:43:07.633Z,67.12
2023-02-13T05:45:34.317Z,67.22
2023-02-13T05:48:00.839Z,66.47
2023-02-13T05:50:27.463Z,67.00
2023-02-13T05:52:55.239Z,66.75
2023-02-13T05:55:21.805Z,67.19
2023-02-13T05:57:48.365Z,67.34
2023-02-13T06:00:15.472Z,66.77
2023-02-13T06:02:42.011Z,67.44
2023-02-13T06:05:08.583Z,67.01
2023-02-13T06:07:35.657Z,66.63
2023-02-13T06:10:02.219Z,67.37
2023-02-13T06:12:28.930Z,66.85
2023-02-13T06:14:55.674Z,67.40
2023-02-13T06:17:22.228Z,67.47
2023-02-13T06:19:48.768Z,66.89
2023-02-13T06:22:15.276Z,66.94
2023-02-13T06:24:41.856Z,66.79
2023-02-13T06:27:08.415Z,67.61
2023-02-13T06:29:35.060Z,67.66
2023-02-13T06:32:01.917Z,67.26
2023-02-13T06:34:28.552Z,66.89
2023-02-13T06:36:55.137Z,66.20
2023-02-13T06:39:21.716Z,66.80
2023-02-13T06:41:48.305Z,67.44
2023-02-13T06:44:14.949Z,67.03
2023-02-13T06:46:41.586Z,66.69
2023-02-13T06:49:09.273Z,66.11
2023-02-13T06:51:35.944Z,66.13
2023-02-13T06:54:02.695Z,65.79
2023-02-13T06:56:29.313Z,65.67
2023-02-13T06:58:55.868Z,65.96
2023-02-13T07:01:22.502Z,66.37
2023-02-13T07:03:49.180Z,65.82
2023-02-13T07:06:19.795Z,66.46
2023-02-13T07:08:46.779Z,65.86
2023-02-13T07:11:17.907Z,64.76
2023-02-13T07:13:44.584Z,64.54
2023-02-13T07:16:12.304Z,64.95
2023-02-13T07:18:38.995Z,64.85
2023-02-13T07:21:05.724Z,65.11
2023-02-13T07:23:32.466Z,64.03
2023-02-13T07:26:00.036Z,64.11
2023-02-13T07:28:27.145Z,64.42
2023-02-13T07:30:56.318Z,63.72
2023-02-13T07:33:23.649Z,63.88
2023-02-13T07:35:51.260Z,63.78
2023-02-13T07:38:18.069Z,63.88
2023-02-13T07:40:45.045Z,63.99
2023-02-13T07:43:12.509Z,64.09
2023-02-13T07:45:39.371Z,63.51
2023-02-13T07:48:06.004Z,63.49
2023-02-13T07:50:32.975Z,63.52
2023-02-13T07:53:02.199Z,63.86
2023-02-13T07:55:29.807Z,63.02
2023-02-13T07:57:56.908Z,63.58
2023-02-13T08:00:23.618Z,62.69
2023-02-13T08:02:50.124Z,62.82
2023-02-13T08:05:16.780Z,62.63
2023-02-13T08:07:43.416Z,62.93
2023-02-13T08:10:31.279Z,62.54
2023-02-13T08:12:58.452Z,62.33
2023-02-13T08:15:25.359Z,63.19
2023-02-13T08:17:51.995Z,62.47
2023-02-13T08:20:18.608Z,62.75
2023-02-13T08:22:45.302Z,62.66
2023-02-13T08:25:15.718Z,62.49
2023-02-13T08:27:42.398Z,61.92
2023-02-13T08:30:10.234Z,61.79
2023-02-13T08:32:52.114Z,61.93
2023-02-13T08:35:20.257Z,61.89
2023-02-13T08:37:47.702Z,62.03
2023-02-13T08:40:14.838Z,61.95
2023-02-13T08:42:41.588Z,61.88
2023-02-13T08:45:10.512Z,62.85
2023-02-13T08:47:37.521Z,62.42
2023-02-13T08:50:04.924Z,62.02
2023-02-13T08:52:31.541Z,62.12
2023-02-13T08:54:58.128Z,62.62
2023-02-13T08:57:24.748Z,61.73
2023-02-13T08:59:51.320Z,61.99
2023-02-13T09:02:18.032Z,61.24
2023-02-13T09:04:44.705Z,62.08
2023-02-13T09:07:11.237Z,61.25
2023-02-13T09:09:38.214Z,62.00
2023-02-13T09:12:05.048Z,61.40
2023-02-13T09:14:31.824Z,61.93
2023-02-13T09:16:58.452Z,62.41
2023-02-13T09:19:25.046Z,62.44
2023-02-13T09:21:52.805Z,61.75
2023-02-13T09:24:19.414Z,61.64
2023-02-13T09:26:45.990Z,61.39
2023-02-13T09:29:12.747Z,61.32
2023-02-13T09:31:39.776Z,61.83
2023-02-13T09:34:06.748Z,61.04
2023-02-13T09:36:33.500Z,61.67
2023-02-13T09:39:01.419Z,61.18
2023-02-13T09:41:29.259Z,61.11
2023-02-13T09:44:03.068Z,61.25
2023-02-13T09:46:37.789Z,60.51
2023-02-13T09:49:15.715Z,60.86
2023-02-13T09:51:44.401Z,60.16
2023-02-13T09:54:14.951Z,60.45
2023-02-13T09:57:00.651Z,60.31
2023-02-13T09:59:45.705Z,60.32
2023-02-13T10:02:21.451Z,60.08
2023-02-13T10:05:04.232Z,60.07
2023-02-13T10:07:47.006Z,59.23
2023-02-13T10:10:29.075Z,59.43
2023-02-13T10:13:11.416Z,59.42
2023-02-13T10:15:37.958Z,60.16
2023-02-13T10:18:06.441Z,59.17
2023-02-13T10:20:41.995Z,58.81
2023-02-13T10:23:43.745Z,59.11
2023-02-13T10:26:20.284Z,58.65
2023-02-13T10:29:09.056Z,58.76
2023-02-13T10:31:40.874Z,58.27
2023-02-13T10:34:12.245Z,57.83
2023-02-13T10:36:40.979Z,55.74
2023-02-13T10:39:10.976Z,46.75
2023-02-13T10:41:49.922Z,37.98
2023-02-13T10:44:24.110Z,32.19
2023-02-13T10:46:56.966Z,28.70
2023-02-13T10:49:42.495Z,27.60
2023-02-13T10:52:15.285Z,27.13
2023-02-13T10:55:02.513Z,29.09
2023-02-13T10:57:44.818Z,29.21
2023-02-13T11:04:13.772Z,24.50
2023-02-13T11:07:37.596Z,24.56
2023-02-13T11:10:35.855Z,27.35
2023-02-13T11:13:24.262Z,26.09
2023-02-13T11:19:25.696Z,22.29
2023-02-13T11:22:08.956Z,21.29
2023-02-13T11:32:24.637Z,17.47
2023-02-13T11:34:51.537Z,17.37
2023-02-13T11:37:21.010Z,16.26
2023-02-13T11:39:51.143Z,16.67
2023-02-13T11:42:25.954Z,16.06
2023-02-13T11:44:54.538Z,15.93
2023-02-13T11:47:41.918Z,16.00
2023-02-13T11:50:38.196Z,16.30
2023-02-13T11:53:06.227Z,15.53
2023-02-13T11:55:38.343Z,14.92
2023-02-13T11:58:11.199Z,14.59
2023-02-13T12:00:40.226Z,14.08
2023-02-13T12:03:22.425Z,14.11
2023-02-13T12:06:00.581Z,14.07
2023-02-13T12:08:27.662Z,13.48
2023-02-13T12:10:54.276Z,14.49
2023-02-13T12:13:27.788Z,14.27
2023-02-13T12:16:01.352Z,14.05
2023-02-13T12:18:36.393Z,13.01
2023-02-13T12:21:03.046Z,13.50
2023-02-13T12:23:55.844Z,14.41
2023-02-13T12:26:32.888Z,15.02
2023-02-13T12:29:29.915Z,14.55
2023-02-13T12:32:21.590Z,14.42
2023-02-13T12:35:13.405Z,14.06
2023-02-13T12:37:52.340Z,13.95
2023-02-13T12:40:25.761Z,14.04
2023-02-13T12:43:11.556Z,14.52
2023-02-13T12:45:48.993Z,14.58
2023-02-13T12:48:21.413Z,14.60
2023-02-13T12:51:07.933Z,14.64
2023-02-13T12:54:00.943Z,14.95
2023-02-13T12:57:02.940Z,15.41
2023-02-13T12:59:57.368Z,15.62
2023-02-13T13:02:38.931Z,16.51
2023-02-13T13:05:19.341Z,17.51
2023-02-13T13:08:02.891Z,20.75
2023-02-13T13:10:38.914Z,23.54
2023-02-13T13:13:08.567Z,25.74
2023-02-13T13:15:52.373Z,28.41
2023-02-13T13:18:26.701Z,29.88
2023-02-13T13:21:02.612Z,31.52
2023-02-13T13:23:34.708Z,32.82
2023-02-13T13:26:33.557Z,33.92
2023-02-13T13:29:04.365Z,34.48
2023-02-13T13:31:48.317Z,35.42
2023-02-13T13:34:18.452Z,35.90
2023-02-13T13:36:54.078Z,36.35
2023-02-13T13:39:39.078Z,37.07
2023-02-13T13:42:06.982Z,37.42
2023-02-13T13:44:52.415Z,37.84
2023-02-13T13:47:26.296Z,37.66
2023-02-13T13:49:55.126Z,37.28
2023-02-13T13:52:29.296Z,37.85
2023-02-13T13:54:57.209Z,37.80
2023-02-13T13:57:24.390Z,37.35
2023-02-13T13:59:59.158Z,37.58
2023-02-13T14:02:26.215Z,37.79
2023-02-13T14:05:11.885Z,37.93
2023-02-13T14:07:41.508Z,38.67
2023-02-13T14:10:26.333Z,38.61
2023-02-13T14:13:03.132Z,38.50
2023-02-13T14:15:38.820Z,38.27
2023-02-13T14:18:14.538Z,38.47
2023-02-13T14:20:49.635Z,37.93
2023-02-13T14:23:19.367Z,38.07
2023-02-13T14:25:46.656Z,38.47
2023-02-13T14:28:39.772Z,38.10
2023-02-13T14:31:25.329Z,38.65
2023-02-13T14:34:17.176Z,38.69
2023-02-13T14:36:48.786Z,38.86
2023-02-13T14:39:18.492Z,38.77
2023-02-13T14:41:51.488Z,38.75
2023-02-13T14:44:37.173Z,38.64
2023-02-13T14:47:06.594Z,38.68
2023-02-13T14:49:35.915Z,39.24
2023-02-13T14:52:07.621Z,38.98
2023-02-13T14:54:43.694Z,39.38
2023-02-13T14:57:24.874Z,39.40
2023-02-13T14:59:59.237Z,39.54
2023-02-13T15:02:34.090Z,39.45
2023-02-13T15:05:06.459Z,39.81
2023-02-13T15:07:54.630Z,40.14
2023-02-13T15:10:43.420Z,40.01
2023-02-13T15:13:29.274Z,39.91
2023-02-13T15:16:00.478Z,40.08
2023-02-13T15:18:55.540Z,40.61
2023-02-13T15:21:25.374Z,40.77
2023-02-13T15:23:55.434Z,40.58
2023-02-13T15:26:32.042Z,40.97
2023-02-13T15:29:02.906Z,40.80
2023-02-13T15:31:38.327Z,40.77
2023-02-13T15:34:23.328Z,41.30
2023-02-13T15:36:50.072Z,41.50
2023-02-13T15:39:18.931Z,41.56
2023-02-13T15:41:47.750Z,42.02
2023-02-13T15:44:23.642Z,42.19
2023-02-13T15:46:53.913Z,42.59
2023-02-13T15:49:28.538Z,42.61
2023-02-13T15:52:03.124Z,42.95
2023-02-13T15:54:32.640Z,43.05
2023-02-13T15:59:58.391Z,43.46
2023-02-13T16:02:48.109Z,43.94
2023-02-13T16:05:15.694Z,44.57
2023-02-13T16:07:49.842Z,43.95
2023-02-13T16:10:17.646Z,44.57
2023-02-13T16:12:48.286Z,44.62
2023-02-13T16:15:19.920Z,44.66
2023-02-13T16:17:47.427Z,44.46
2023-02-13T16:20:14.490Z,45.14
2023-02-13T16:22:45.193Z,45.57
2023-02-13T16:25:21.290Z,45.78
2023-02-13T16:27:47.770Z,46.13
2023-02-13T16:30:33.910Z,46.21
2023-02-13T16:33:13.902Z,46.24
2023-02-13T16:35:44.901Z,46.67
2023-02-13T16:38:48.650Z,46.97
2023-02-13T16:41:34.820Z,46.92
2023-02-13T16:47:29.622Z,47.07
2023-02-13T16:50:19.744Z,47.44
2023-02-13T16:52:46.356Z,47.71
2023-02-13T16:55:16.786Z,47.58
2023-02-13T16:57:44.423Z,47.54
2023-02-13T17:00:24.523Z,48.03
2023-02-13T17:02:56.223Z,47.87
2023-02-13T17:05:24.177Z,47.43
2023-02-13T17:07:54.575Z,47.90
2023-02-13T17:10:29.279Z,48.65
2023-02-13T17:12:56.943Z,48.55
2023-02-13T17:15:27.639Z,48.83
2023-02-13T17:17:55.465Z,48.66
2023-02-13T17:20:28.296Z,48.90
2023-02-13T17:22:56.564Z,49.18
2023-02-13T17:25:23.421Z,49.13
2023-02-13T17:27:51.998Z,49.07
2023-02-13T17:30:26.005Z,49.01
2023-02-13T17:32:58.704Z,49.13
2023-02-13T17:35:27.955Z,49.12
2023-02-13T17:37:56.981Z,50.05
2023-02-13T17:40:25.505Z,50.15
2023-02-13T17:42:53.402Z,49.93
2023-02-13T17:45:21.887Z,49.50
2023-02-13T17:47:52.111Z,50.01
2023-02-13T17:50:24.302Z,50.54
2023-02-13T17:53:10.014Z,50.76
2023-02-13T17:56:02.795Z,51.32
2023-02-13T17:58:33.486Z,51.65
2023-02-13T18:01:24.597Z,51.82
2023-02-13T18:03:53.892Z,51.63
2023-02-13T18:06:22.748Z,52.24
2023-02-13T18:08:58.320Z,52.59
2023-02-13T18:11:38.059Z,52.31
2023-02-13T18:14:38.068Z,52.54
2023-02-13T18:17:09.655Z,52.98
2023-02-13T18:19:48.850Z,52.68
2023-02-13T18:22:33.729Z,52.24
2023-02-13T18:25:22.893Z,52.92
2023-02-13T18:28:04.872Z,52.77
2023-02-13T18:30:48.452Z,52.49
2023-02-13T18:33:24.403Z,52.78
2023-02-13T18:35:51.673Z,52.81
2023-02-13T18:38:22.831Z,52.52
2023-02-13T18:40:56.308Z,52.51
2023-02-13T18:43:24.086Z,52.35
2023-02-13T18:45:55.670Z,53.03
2023-02-13T18:48:28.678Z,52.98
2023-02-13T18:50:59.369Z,53.63
2023-02-13T18:53:29.491Z,53.67
2023-02-13T18:56:07.292Z,53.82
2023-02-13T18:58:35.413Z,54.22
2023-02-13T19:01:31.697Z,54.51
2023-02-13T19:03:59.331Z,54.54
2023-02-13T19:10:03.369Z,55.43
2023-02-13T19:12:37.066Z,54.84
2023-02-13T19:15:23.076Z,55.03
2023-02-13T19:18:00.344Z,55.30
2023-02-13T19:20:48.816Z,54.51
2023-02-13T19:23:16.145Z,54.91
2023-02-13T19:25:50.951Z,54.55
2023-02-13T19:28:30.696Z,54.37
2023-02-13T19:31:22.272Z,55.25
2023-02-13T19:33:55.887Z,55.54
2023-02-13T19:36:25.751Z,55.57
2023-02-13T19:38:58.563Z,55.14
2023-02-13T19:41:32.232Z,55.11
2023-02-13T19:44:06.401Z,55.38
2023-02-13T19:46:40.878Z,55.18
2023-02-13T19:49:12.315Z,54.94
2023-02-13T19:51:46.250Z,55.08
2023-02-13T19:57:19.723Z,55.00
2023-02-13T19:59:50.841Z,54.90
2023-02-13T20:02:21.862Z,55.03
2023-02-13T20:04:58.637Z,55.81
2023-02-13T20:07:35.204Z,55.54
2023-02-13T20:10:06.597Z,55.99
2023-02-13T20:12:55.587Z,55.86
2023-02-13T20:15:32.398Z,55.63
2023-02-13T20:18:28.190Z,55.62
2023-02-13T20:20:58.491Z,55.95
2023-02-13T20:23:32.284Z,55.48
2023-02-13T20:26:19.050Z,55.09
2023-02-13T20:28:50.020Z,55.40
2023-02-13T20:31:36.916Z,55.03
2023-02-13T20:34:19.660Z,55.02
2023-02-13T20:37:05.326Z,55.08
2023-02-13T20:39:39.657Z,55.19
2023-02-13T20:42:10.742Z,55.22
2023-02-13T20:44:44.446Z,55.19
2023-02-13T20:47:16.725Z,55.42
2023-02-13T20:52:59.817Z,54.64
2023-02-13T20:55:38.678Z,55.28
2023-02-13T20:58:18.759Z,54.95
2023-02-13T21:01:02.768Z,54.76
2023-02-13T21:03:58.535Z,54.97
2023-02-13T21:06:37.791Z,54.68
2023-02-13T21:09:36.210Z,54.69
2023-02-13T21:12:03.317Z,55.55
2023-02-13T21:25:38.692Z,54.76
2023-02-13T21:34:51.365Z,55.48
2023-02-13T21:38:37.169Z,55.27
2023-02-13T21:41:37.147Z,55.35
2023-02-13T21:45:00.467Z,54.82
2023-02-13T21:52:01.342Z,54.88
2023-02-13T21:55:01.026Z,54.76
2023-02-13T22:00:50.408Z,54.98
2023-02-13T22:03:34.755Z,55.03
2023-02-13T22:09:15.237Z,54.62
2023-02-13T22:11:45.661Z,55.08
2023-02-13T22:14:39.449Z,54.88
2023-02-13T22:17:36.022Z,55.26
2023-02-13T22:20:32.990Z,55.00
2023-02-13T22:23:15.761Z,54.96
2023-02-13T22:25:57.107Z,55.55
2023-02-13T22:28:34.092Z,55.22
2023-02-13T22:31:22.369Z,54.94
2023-02-13T22:34:04.411Z,55.16
2023-02-13T22:36:44.289Z,55.13
2023-02-13T22:39:12.010Z,55.37
2023-02-13T22:41:38.796Z,55.21
2023-02-13T22:44:05.672Z,55.68
2023-02-13T22:46:33.671Z,55.19
2023-02-13T22:49:00.359Z,56.04
2023-02-13T22:51:28.888Z,55.79
2023-02-13T22:53:56.487Z,55.42
2023-02-13T22:56:23.931Z,55.63
2023-02-13T22:58:50.457Z,55.58
2023-02-13T23:01:18.476Z,56.11
2023-02-13T23:03:45.715Z,56.39
2023-02-13T23:06:13.037Z,55.90
2023-02-13T23:08:39.697Z,55.92
2023-02-13T23:11:25.695Z,56.02
2023-02-13T23:13:52.368Z,55.91
2023-02-13T23:16:19.119Z,56.25
2023-02-13T23:18:50.492Z,56.54
2023-02-13T23:21:17.151Z,56.27
2023-02-13T23:23:43.954Z,56.23
2023-02-13T23:26:10.537Z,55.75
2023-02-13T23:28:37.088Z,56.43
2023-02-13T23:31:04.072Z,56.10
2023-02-13T23:33:31.201Z,56.10
2023-02-13T23:35:57.759Z,56.40
2023-02-13T23:38:25.315Z,55.65
2023-02-13T23:40:51.839Z,56.09
2023-02-13T23:43:18.304Z,56.56
2023-02-13T23:45:44.911Z,56.15
2023-02-13T23:48:12.740Z,56.63
2023-02-13T23:50:40.286Z,55.98
2023-02-13T23:53:06.953Z,56.62
2023-02-13T23:55:33.544Z,56.03
2023-02-13T23:58:00.322Z,55.97
